sensor_id;sensor_type;location;lat;lon;timestamp;P1;durP1;ratioP1;P2;durP2;ratioP2
42066;SDS011;27734;47.028;28.820;2023-12-20T00:00:00;47.53;;;26.20;;
42066;SDS011;27734;47.028;28.820;2023-12-20T00:02:33;48.98;;;26.55;;
42066;SDS011;27734;47.028;28.820;2023-12-20T00:07:38;47.10;;;24.53;;
42066;SDS011;27734;47.028;28.820;2023-12-20T00:10:09;50.23;;;25.60;;
42066;SDS011;27734;47.028;28.820;2023-12-20T00:12:43;49.87;;;26.23;;
42066;SDS011;27734;47.028;28.820;2023-12-20T00:15:16;48.60;;;27.37;;
42066;SDS011;27734;47.028;28.820;2023-12-20T00:17:47;46.70;;;26.43;;
42066;SDS011;27734;47.028;28.820;2023-12-20T00:20:20;48.27;;;26.80;;
42066;SDS011;27734;47.028;28.820;2023-12-20T00:22:51;47.63;;;26.47;;
42066;SDS011;27734;47.028;28.820;2023-12-20T00:25:24;46.33;;;25.93;;
42066;SDS011;27734;47.028;28.820;2023-12-20T00:27:55;45.73;;;26.80;;
42066;SDS011;27734;47.028;28.820;2023-12-20T00:30:26;48.30;;;26.97;;
42066;SDS011;27734;47.028;28.820;2023-12-20T00:32:57;47.73;;;26.03;;
42066;SDS011;27734;47.028;28.820;2023-12-20T00:35:28;45.03;;;25.63;;
42066;SDS011;27734;47.028;28.820;2023-12-20T00:37:59;48.77;;;25.37;;
42066;SDS011;27734;47.028;28.820;2023-12-20T00:40:31;48.50;;;26.37;;
42066;SDS011;27734;47.028;28.820;2023-12-20T00:43:02;49.15;;;26.95;;
42066;SDS011;27734;47.028;28.820;2023-12-20T00:45:33;45.30;;;24.90;;
42066;SDS011;27734;47.028;28.820;2023-12-20T00:48:05;46.27;;;26.97;;
42066;SDS011;27734;47.028;28.820;2023-12-20T00:50:36;47.80;;;26.27;;
42066;SDS011;27734;47.028;28.820;2023-12-20T00:53:07;48.03;;;26.23;;
42066;SDS011;27734;47.028;28.820;2023-12-20T00:55:39;48.97;;;25.50;;
42066;SDS011;27734;47.028;28.820;2023-12-20T00:58:10;45.53;;;26.03;;
42066;SDS011;27734;47.028;28.820;2023-12-20T01:00:43;47.87;;;26.80;;
42066;SDS011;27734;47.028;28.820;2023-12-20T01:03:14;47.03;;;25.30;;
42066;SDS011;27734;47.028;28.820;2023-12-20T01:05:46;48.07;;;26.00;;
42066;SDS011;27734;47.028;28.820;2023-12-20T01:08:17;51.83;;;27.77;;
42066;SDS011;27734;47.028;28.820;2023-12-20T01:10:48;46.67;;;25.07;;
42066;SDS011;27734;47.028;28.820;2023-12-20T01:13:19;48.27;;;25.53;;
42066;SDS011;27734;47.028;28.820;2023-12-20T01:15:50;48.23;;;26.80;;
42066;SDS011;27734;47.028;28.820;2023-12-20T01:18:21;46.43;;;26.20;;
42066;SDS011;27734;47.028;28.820;2023-12-20T01:20:52;49.53;;;27.40;;
42066;SDS011;27734;47.028;28.820;2023-12-20T01:23:24;51.07;;;26.57;;
42066;SDS011;27734;47.028;28.820;2023-12-20T01:25:55;48.53;;;26.27;;
42066;SDS011;27734;47.028;28.820;2023-12-20T01:28:27;48.70;;;27.25;;
42066;SDS011;27734;47.028;28.820;2023-12-20T01:30:58;47.40;;;26.40;;
42066;SDS011;27734;47.028;28.820;2023-12-20T01:33:29;47.27;;;27.20;;
42066;SDS011;27734;47.028;28.820;2023-12-20T01:36:00;49.57;;;27.83;;
42066;SDS011;27734;47.028;28.820;2023-12-20T01:38:32;47.80;;;25.07;;
42066;SDS011;27734;47.028;28.820;2023-12-20T01:41:03;47.53;;;25.83;;
42066;SDS011;27734;47.028;28.820;2023-12-20T01:43:34;49.30;;;25.97;;
42066;SDS011;27734;47.028;28.820;2023-12-20T01:46:05;44.37;;;25.37;;
42066;SDS011;27734;47.028;28.820;2023-12-20T01:48:37;45.87;;;25.80;;
42066;SDS011;27734;47.028;28.820;2023-12-20T01:51:08;48.17;;;27.13;;
42066;SDS011;27734;47.028;28.820;2023-12-20T01:53:39;48.90;;;26.03;;
42066;SDS011;27734;47.028;28.820;2023-12-20T01:56:12;48.43;;;26.97;;
42066;SDS011;27734;47.028;28.820;2023-12-20T01:58:45;46.47;;;26.50;;
42066;SDS011;27734;47.028;28.820;2023-12-20T02:01:19;50.53;;;27.27;;
42066;SDS011;27734;47.028;28.820;2023-12-20T02:03:50;45.47;;;25.90;;
42066;SDS011;27734;47.028;28.820;2023-12-20T02:06:22;49.03;;;27.07;;
42066;SDS011;27734;47.028;28.820;2023-12-20T02:08:58;49.13;;;26.67;;
42066;SDS011;27734;47.028;28.820;2023-12-20T02:11:31;49.40;;;26.27;;
42066;SDS011;27734;47.028;28.820;2023-12-20T02:14:03;46.10;;;25.93;;
42066;SDS011;27734;47.028;28.820;2023-12-20T02:16:34;46.83;;;26.17;;
42066;SDS011;27734;47.028;28.820;2023-12-20T02:19:06;50.90;;;25.97;;
42066;SDS011;27734;47.028;28.820;2023-12-20T02:21:46;47.30;;;26.00;;
42066;SDS011;27734;47.028;28.820;2023-12-20T02:26:47;51.67;;;27.00;;
42066;SDS011;27734;47.028;28.820;2023-12-20T02:29:18;50.67;;;26.50;;
42066;SDS011;27734;47.028;28.820;2023-12-20T02:31:49;48.70;;;26.60;;
42066;SDS011;27734;47.028;28.820;2023-12-20T02:34:20;52.73;;;27.17;;
42066;SDS011;27734;47.028;28.820;2023-12-20T02:36:51;50.57;;;27.87;;
42066;SDS011;27734;47.028;28.820;2023-12-20T02:39:22;53.00;;;28.17;;
42066;SDS011;27734;47.028;28.820;2023-12-20T02:41:54;50.97;;;28.23;;
42066;SDS011;27734;47.028;28.820;2023-12-20T02:44:25;50.90;;;28.17;;
42066;SDS011;27734;47.028;28.820;2023-12-20T02:46:59;49.17;;;26.80;;
42066;SDS011;27734;47.028;28.820;2023-12-20T02:49:31;53.20;;;27.33;;
42066;SDS011;27734;47.028;28.820;2023-12-20T02:52:02;49.23;;;27.93;;
42066;SDS011;27734;47.028;28.820;2023-12-20T02:54:34;52.33;;;28.53;;
42066;SDS011;27734;47.028;28.820;2023-12-20T02:57:06;53.17;;;27.87;;
42066;SDS011;27734;47.028;28.820;2023-12-20T02:59:37;51.43;;;28.27;;
42066;SDS011;27734;47.028;28.820;2023-12-20T03:02:08;51.20;;;27.10;;
42066;SDS011;27734;47.028;28.820;2023-12-20T03:04:39;52.80;;;26.65;;
42066;SDS011;27734;47.028;28.820;2023-12-20T03:07:11;51.67;;;27.13;;
42066;SDS011;27734;47.028;28.820;2023-12-20T03:09:42;48.70;;;27.07;;
42066;SDS011;27734;47.028;28.820;2023-12-20T03:12:14;54.00;;;27.40;;
42066;SDS011;27734;47.028;28.820;2023-12-20T03:17:18;46.57;;;25.87;;
42066;SDS011;27734;47.028;28.820;2023-12-20T03:19:49;53.67;;;28.57;;
42066;SDS011;27734;47.028;28.820;2023-12-20T03:22:21;50.00;;;27.17;;
42066;SDS011;27734;47.028;28.820;2023-12-20T03:24:52;53.67;;;27.47;;
42066;SDS011;27734;47.028;28.820;2023-12-20T03:27:23;52.47;;;27.87;;
42066;SDS011;27734;47.028;28.820;2023-12-20T03:29:54;53.87;;;27.77;;
42066;SDS011;27734;47.028;28.820;2023-12-20T03:32:25;54.40;;;28.13;;
42066;SDS011;27734;47.028;28.820;2023-12-20T03:34:56;50.40;;;27.27;;
42066;SDS011;27734;47.028;28.820;2023-12-20T03:37:27;49.40;;;26.27;;
42066;SDS011;27734;47.028;28.820;2023-12-20T03:39:59;54.57;;;28.60;;
42066;SDS011;27734;47.028;28.820;2023-12-20T03:42:30;50.43;;;27.00;;
42066;SDS011;27734;47.028;28.820;2023-12-20T03:45:02;51.90;;;27.90;;
42066;SDS011;27734;47.028;28.820;2023-12-20T03:47:34;49.40;;;26.93;;
42066;SDS011;27734;47.028;28.820;2023-12-20T03:50:06;53.23;;;27.80;;
42066;SDS011;27734;47.028;28.820;2023-12-20T03:52:38;51.13;;;26.33;;
42066;SDS011;27734;47.028;28.820;2023-12-20T03:55:09;50.83;;;27.93;;
42066;SDS011;27734;47.028;28.820;2023-12-20T03:57:40;49.77;;;27.20;;
42066;SDS011;27734;47.028;28.820;2023-12-20T04:00:11;51.77;;;27.27;;
42066;SDS011;27734;47.028;28.820;2023-12-20T04:02:43;51.20;;;27.47;;
42066;SDS011;27734;47.028;28.820;2023-12-20T04:05:14;51.07;;;26.07;;
42066;SDS011;27734;47.028;28.820;2023-12-20T04:07:46;46.07;;;27.30;;
42066;SDS011;27734;47.028;28.820;2023-12-20T04:10:18;52.00;;;26.13;;
42066;SDS011;27734;47.028;28.820;2023-12-20T04:12:49;57.25;;;26.60;;
42066;SDS011;27734;47.028;28.820;2023-12-20T04:15:20;55.97;;;26.77;;
42066;SDS011;27734;47.028;28.820;2023-12-20T04:17:52;55.60;;;26.97;;
42066;SDS011;27734;47.028;28.820;2023-12-20T04:20:25;47.75;;;25.55;;
42066;SDS011;27734;47.028;28.820;2023-12-20T04:22:56;52.57;;;27.63;;
42066;SDS011;27734;47.028;28.820;2023-12-20T04:25:27;48.40;;;26.47;;
42066;SDS011;27734;47.028;28.820;2023-12-20T04:27:58;52.23;;;28.10;;
42066;SDS011;27734;47.028;28.820;2023-12-20T04:30:29;52.70;;;28.80;;
42066;SDS011;27734;47.028;28.820;2023-12-20T04:33:00;52.33;;;27.57;;
42066;SDS011;27734;47.028;28.820;2023-12-20T04:35:32;57.03;;;27.80;;
42066;SDS011;27734;47.028;28.820;2023-12-20T04:38:03;53.37;;;27.67;;
42066;SDS011;27734;47.028;28.820;2023-12-20T04:40:34;53.20;;;28.95;;
42066;SDS011;27734;47.028;28.820;2023-12-20T04:43:05;52.23;;;28.87;;
42066;SDS011;27734;47.028;28.820;2023-12-20T04:45:38;54.40;;;28.87;;
42066;SDS011;27734;47.028;28.820;2023-12-20T04:48:09;58.43;;;29.37;;
42066;SDS011;27734;47.028;28.820;2023-12-20T04:50:41;62.97;;;29.87;;
42066;SDS011;27734;47.028;28.820;2023-12-20T04:53:12;56.83;;;28.77;;
42066;SDS011;27734;47.028;28.820;2023-12-20T04:55:44;51.90;;;28.97;;
42066;SDS011;27734;47.028;28.820;2023-12-20T04:58:15;55.13;;;29.77;;
42066;SDS011;27734;47.028;28.820;2023-12-20T05:00:46;57.73;;;30.50;;
42066;SDS011;27734;47.028;28.820;2023-12-20T05:03:17;55.00;;;29.40;;
42066;SDS011;27734;47.028;28.820;2023-12-20T05:05:48;52.63;;;30.07;;
42066;SDS011;27734;47.028;28.820;2023-12-20T05:08:20;53.87;;;28.63;;
42066;SDS011;27734;47.028;28.820;2023-12-20T05:10:51;55.33;;;28.37;;
42066;SDS011;27734;47.028;28.820;2023-12-20T05:13:23;54.10;;;29.13;;
42066;SDS011;27734;47.028;28.820;2023-12-20T05:15:54;53.87;;;29.53;;
42066;SDS011;27734;47.028;28.820;2023-12-20T05:18:25;55.20;;;29.40;;
42066;SDS011;27734;47.028;28.820;2023-12-20T05:20:56;51.93;;;30.67;;
42066;SDS011;27734;47.028;28.820;2023-12-20T05:23:27;57.03;;;30.33;;
42066;SDS011;27734;47.028;28.820;2023-12-20T05:25:58;57.97;;;30.63;;
42066;SDS011;27734;47.028;28.820;2023-12-20T05:28:32;57.33;;;30.20;;
42066;SDS011;27734;47.028;28.820;2023-12-20T05:31:03;52.33;;;29.03;;
42066;SDS011;27734;47.028;28.820;2023-12-20T05:33:34;51.70;;;28.55;;
42066;SDS011;27734;47.028;28.820;2023-12-20T05:36:06;51.67;;;28.63;;
42066;SDS011;27734;47.028;28.820;2023-12-20T05:38:40;54.87;;;29.43;;
42066;SDS011;27734;47.028;28.820;2023-12-20T05:41:11;54.50;;;29.93;;
42066;SDS011;27734;47.028;28.820;2023-12-20T05:43:43;55.10;;;29.00;;
42066;SDS011;27734;47.028;28.820;2023-12-20T05:46:16;52.93;;;29.27;;
42066;SDS011;27734;47.028;28.820;2023-12-20T05:48:47;52.03;;;28.97;;
42066;SDS011;27734;47.028;28.820;2023-12-20T05:51:19;56.37;;;29.73;;
42066;SDS011;27734;47.028;28.820;2023-12-20T05:53:50;58.70;;;31.63;;
42066;SDS011;27734;47.028;28.820;2023-12-20T05:56:22;53.03;;;29.10;;
42066;SDS011;27734;47.028;28.820;2023-12-20T05:58:53;55.85;;;29.05;;
42066;SDS011;27734;47.028;28.820;2023-12-20T06:01:24;54.27;;;30.40;;
42066;SDS011;27734;47.028;28.820;2023-12-20T06:03:55;57.75;;;30.20;;
42066;SDS011;27734;47.028;28.820;2023-12-20T06:06:28;56.30;;;31.33;;
42066;SDS011;27734;47.028;28.820;2023-12-20T06:09:01;58.27;;;32.17;;
42066;SDS011;27734;47.028;28.820;2023-12-20T06:11:33;56.20;;;31.45;;
42066;SDS011;27734;47.028;28.820;2023-12-20T06:14:04;60.60;;;33.77;;
42066;SDS011;27734;47.028;28.820;2023-12-20T06:16:38;64.87;;;34.73;;
42066;SDS011;27734;47.028;28.820;2023-12-20T06:19:11;66.77;;;35.00;;
42066;SDS011;27734;47.028;28.820;2023-12-20T06:21:45;59.80;;;32.93;;
42066;SDS011;27734;47.028;28.820;2023-12-20T06:24:21;60.27;;;33.33;;
42066;SDS011;27734;47.028;28.820;2023-12-20T06:29:25;60.60;;;32.67;;
42066;SDS011;27734;47.028;28.820;2023-12-20T06:31:57;63.97;;;33.73;;
42066;SDS011;27734;47.028;28.820;2023-12-20T06:34:28;59.30;;;32.60;;
42066;SDS011;27734;47.028;28.820;2023-12-20T06:36:59;58.00;;;32.70;;
42066;SDS011;27734;47.028;28.820;2023-12-20T06:39:31;57.53;;;29.90;;
42066;SDS011;27734;47.028;28.820;2023-12-20T06:42:03;55.27;;;30.87;;
42066;SDS011;27734;47.028;28.820;2023-12-20T06:44:35;56.57;;;30.70;;
42066;SDS011;27734;47.028;28.820;2023-12-20T06:47:07;56.43;;;30.53;;
42066;SDS011;27734;47.028;28.820;2023-12-20T06:49:38;53.47;;;29.10;;
42066;SDS011;27734;47.028;28.820;2023-12-20T06:52:09;55.60;;;30.67;;
42066;SDS011;27734;47.028;28.820;2023-12-20T06:54:41;58.30;;;30.80;;
42066;SDS011;27734;47.028;28.820;2023-12-20T06:57:12;56.70;;;31.70;;
42066;SDS011;27734;47.028;28.820;2023-12-20T06:59:45;57.60;;;29.97;;
42066;SDS011;27734;47.028;28.820;2023-12-20T07:02:16;58.67;;;31.87;;
42066;SDS011;27734;47.028;28.820;2023-12-20T07:04:49;54.50;;;29.57;;
42066;SDS011;27734;47.028;28.820;2023-12-20T07:07:20;54.07;;;30.60;;
42066;SDS011;27734;47.028;28.820;2023-12-20T07:09:52;56.43;;;29.77;;
42066;SDS011;27734;47.028;28.820;2023-12-20T07:12:25;52.40;;;30.27;;
42066;SDS011;27734;47.028;28.820;2023-12-20T07:14:56;55.60;;;29.90;;
42066;SDS011;27734;47.028;28.820;2023-12-20T07:17:28;59.47;;;31.43;;
42066;SDS011;27734;47.028;28.820;2023-12-20T07:19:59;52.00;;;29.03;;
42066;SDS011;27734;47.028;28.820;2023-12-20T07:22:33;52.95;;;28.85;;
42066;SDS011;27734;47.028;28.820;2023-12-20T07:25:05;57.53;;;30.20;;
42066;SDS011;27734;47.028;28.820;2023-12-20T07:27:56;58.50;;;31.03;;
42066;SDS011;27734;47.028;28.820;2023-12-20T07:30:32;63.87;;;32.40;;
42066;SDS011;27734;47.028;28.820;2023-12-20T07:33:09;63.80;;;32.80;;
42066;SDS011;27734;47.028;28.820;2023-12-20T07:35:40;60.50;;;31.53;;
42066;SDS011;27734;47.028;28.820;2023-12-20T07:38:15;55.80;;;31.93;;
42066;SDS011;27734;47.028;28.820;2023-12-20T07:40:49;57.33;;;31.00;;
42066;SDS011;27734;47.028;28.820;2023-12-20T07:43:21;53.30;;;30.50;;
42066;SDS011;27734;47.028;28.820;2023-12-20T07:45:55;58.63;;;32.70;;
42066;SDS011;27734;47.028;28.820;2023-12-20T07:48:47;55.70;;;31.63;;
42066;SDS011;27734;47.028;28.820;2023-12-20T07:51:27;52.43;;;30.97;;
42066;SDS011;27734;47.028;28.820;2023-12-20T07:53:58;52.63;;;30.70;;
42066;SDS011;27734;47.028;28.820;2023-12-20T07:56:29;54.40;;;31.70;;
42066;SDS011;27734;47.028;28.820;2023-12-20T07:59:01;53.27;;;30.93;;
42066;SDS011;27734;47.028;28.820;2023-12-20T08:01:32;60.67;;;33.50;;
42066;SDS011;27734;47.028;28.820;2023-12-20T08:04:05;59.87;;;32.20;;
42066;SDS011;27734;47.028;28.820;2023-12-20T08:06:36;55.30;;;31.40;;
42066;SDS011;27734;47.028;28.820;2023-12-20T08:09:07;61.83;;;32.17;;
42066;SDS011;27734;47.028;28.820;2023-12-20T08:11:39;54.27;;;31.37;;
42066;SDS011;27734;47.028;28.820;2023-12-20T08:14:15;56.10;;;31.67;;
42066;SDS011;27734;47.028;28.820;2023-12-20T08:16:48;61.30;;;34.77;;
42066;SDS011;27734;47.028;28.820;2023-12-20T08:19:24;56.70;;;32.73;;
42066;SDS011;27734;47.028;28.820;2023-12-20T08:21:55;58.80;;;34.33;;
42066;SDS011;27734;47.028;28.820;2023-12-20T08:24:33;61.13;;;34.37;;
42066;SDS011;27734;47.028;28.820;2023-12-20T08:27:05;58.50;;;33.93;;
42066;SDS011;27734;47.028;28.820;2023-12-20T08:29:43;63.20;;;33.90;;
42066;SDS011;27734;47.028;28.820;2023-12-20T08:32:21;56.40;;;33.17;;
42066;SDS011;27734;47.028;28.820;2023-12-20T08:34:56;55.87;;;30.27;;
42066;SDS011;27734;47.028;28.820;2023-12-20T08:37:28;47.73;;;27.42;;
42066;SDS011;27734;47.028;28.820;2023-12-20T08:40:01;42.77;;;25.20;;
42066;SDS011;27734;47.028;28.820;2023-12-20T08:42:32;44.77;;;24.67;;
42066;SDS011;27734;47.028;28.820;2023-12-20T08:45:09;41.83;;;24.65;;
42066;SDS011;27734;47.028;28.820;2023-12-20T08:47:41;50.30;;;25.47;;
42066;SDS011;27734;47.028;28.820;2023-12-20T08:50:13;44.53;;;24.20;;
42066;SDS011;27734;47.028;28.820;2023-12-20T08:52:44;45.60;;;25.43;;
42066;SDS011;27734;47.028;28.820;2023-12-20T08:55:19;42.00;;;25.10;;
42066;SDS011;27734;47.028;28.820;2023-12-20T08:57:52;47.73;;;25.80;;
42066;SDS011;27734;47.028;28.820;2023-12-20T09:00:25;54.85;;;29.75;;
42066;SDS011;27734;47.028;28.820;2023-12-20T09:02:58;53.20;;;30.03;;
42066;SDS011;27734;47.028;28.820;2023-12-20T09:08:02;53.10;;;30.20;;
42066;SDS011;27734;47.028;28.820;2023-12-20T09:10:36;52.35;;;30.95;;
42066;SDS011;27734;47.028;28.820;2023-12-20T09:13:08;56.03;;;31.00;;
42066;SDS011;27734;47.028;28.820;2023-12-20T09:15:42;49.43;;;27.63;;
42066;SDS011;27734;47.028;28.820;2023-12-20T09:18:17;52.53;;;27.13;;
42066;SDS011;27734;47.028;28.820;2023-12-20T09:20:55;46.30;;;26.07;;
42066;SDS011;27734;47.028;28.820;2023-12-20T09:23:26;46.48;;;23.60;;
42066;SDS011;27734;47.028;28.820;2023-12-20T09:25:59;44.60;;;23.83;;
42066;SDS011;27734;47.028;28.820;2023-12-20T09:28:32;38.33;;;21.97;;
42066;SDS011;27734;47.028;28.820;2023-12-20T09:31:07;37.63;;;22.07;;
42066;SDS011;27734;47.028;28.820;2023-12-20T09:33:41;38.50;;;21.80;;
42066;SDS011;27734;47.028;28.820;2023-12-20T09:36:22;38.85;;;22.00;;
42066;SDS011;27734;47.028;28.820;2023-12-20T09:38:54;53.20;;;28.83;;
42066;SDS011;27734;47.028;28.820;2023-12-20T09:41:25;49.37;;;30.80;;
42066;SDS011;27734;47.028;28.820;2023-12-20T09:44:01;43.80;;;25.70;;
42066;SDS011;27734;47.028;28.820;2023-12-20T09:46:34;40.87;;;23.73;;
42066;SDS011;27734;47.028;28.820;2023-12-20T09:49:17;44.00;;;24.03;;
42066;SDS011;27734;47.028;28.820;2023-12-20T09:51:48;39.87;;;23.33;;
42066;SDS011;27734;47.028;28.820;2023-12-20T09:54:23;57.33;;;26.80;;
42066;SDS011;27734;47.028;28.820;2023-12-20T09:57:00;47.47;;;24.47;;
42066;SDS011;27734;47.028;28.820;2023-12-20T09:59:33;35.90;;;20.53;;
42066;SDS011;27734;47.028;28.820;2023-12-20T10:02:05;43.80;;;21.30;;
42066;SDS011;27734;47.028;28.820;2023-12-20T10:04:54;36.37;;;19.43;;
42066;SDS011;27734;47.028;28.820;2023-12-20T10:07:27;35.40;;;19.10;;
42066;SDS011;27734;47.028;28.820;2023-12-20T10:09:58;35.97;;;19.17;;
42066;SDS011;27734;47.028;28.820;2023-12-20T10:12:31;34.77;;;18.97;;
42066;SDS011;27734;47.028;28.820;2023-12-20T10:15:02;34.80;;;19.80;;
42066;SDS011;27734;47.028;28.820;2023-12-20T10:17:34;37.20;;;19.00;;
42066;SDS011;27734;47.028;28.820;2023-12-20T10:20:07;37.60;;;20.10;;
42066;SDS011;27734;47.028;28.820;2023-12-20T10:22:43;32.57;;;18.33;;
42066;SDS011;27734;47.028;28.820;2023-12-20T10:25:15;32.43;;;17.33;;
42066;SDS011;27734;47.028;28.820;2023-12-20T10:27:49;33.27;;;18.80;;
42066;SDS011;27734;47.028;28.820;2023-12-20T10:30:46;37.27;;;18.90;;
42066;SDS011;27734;47.028;28.820;2023-12-20T10:33:24;37.63;;;20.57;;
42066;SDS011;27734;47.028;28.820;2023-12-20T10:36:01;36.87;;;20.43;;
42066;SDS011;27734;47.028;28.820;2023-12-20T10:38:39;45.67;;;21.93;;
42066;SDS011;27734;47.028;28.820;2023-12-20T10:41:12;36.77;;;20.47;;
42066;SDS011;27734;47.028;28.820;2023-12-20T10:43:47;42.83;;;20.20;;
42066;SDS011;27734;47.028;28.820;2023-12-20T10:46:19;36.80;;;19.87;;
42066;SDS011;27734;47.028;28.820;2023-12-20T10:48:51;34.00;;;19.07;;
42066;SDS011;27734;47.028;28.820;2023-12-20T10:51:27;33.97;;;18.47;;
42066;SDS011;27734;47.028;28.820;2023-12-20T10:53:58;39.07;;;19.60;;
42066;SDS011;27734;47.028;28.820;2023-12-20T10:56:31;33.17;;;17.57;;
42066;SDS011;27734;47.028;28.820;2023-12-20T10:59:06;32.30;;;17.70;;
42066;SDS011;27734;47.028;28.820;2023-12-20T11:01:45;31.53;;;18.20;;
42066;SDS011;27734;47.028;28.820;2023-12-20T11:04:23;32.37;;;18.07;;
42066;SDS011;27734;47.028;28.820;2023-12-20T11:07:05;31.33;;;16.33;;
42066;SDS011;27734;47.028;28.820;2023-12-20T11:09:47;32.23;;;16.97;;
42066;SDS011;27734;47.028;28.820;2023-12-20T11:12:25;30.37;;;16.50;;
42066;SDS011;27734;47.028;28.820;2023-12-20T11:15:10;31.00;;;16.67;;
42066;SDS011;27734;47.028;28.820;2023-12-20T11:17:45;29.05;;;15.03;;
42066;SDS011;27734;47.028;28.820;2023-12-20T11:20:24;31.73;;;15.90;;
42066;SDS011;27734;47.028;28.820;2023-12-20T11:23:05;28.07;;;15.37;;
42066;SDS011;27734;47.028;28.820;2023-12-20T11:25:47;30.70;;;15.30;;
42066;SDS011;27734;47.028;28.820;2023-12-20T11:28:40;27.83;;;15.07;;
42066;SDS011;27734;47.028;28.820;2023-12-20T11:31:36;30.90;;;15.40;;
42066;SDS011;27734;47.028;28.820;2023-12-20T11:34:14;28.27;;;15.70;;
42066;SDS011;27734;47.028;28.820;2023-12-20T11:36:46;33.73;;;17.13;;
42066;SDS011;27734;47.028;28.820;2023-12-20T11:39:21;29.33;;;15.83;;
42066;SDS011;27734;47.028;28.820;2023-12-20T11:41:55;34.87;;;16.77;;
42066;SDS011;27734;47.028;28.820;2023-12-20T11:44:35;31.20;;;16.77;;
42066;SDS011;27734;47.028;28.820;2023-12-20T11:47:08;30.40;;;14.83;;
42066;SDS011;27734;47.028;28.820;2023-12-20T11:49:49;33.80;;;14.83;;
42066;SDS011;27734;47.028;28.820;2023-12-20T11:52:24;27.62;;;14.40;;
42066;SDS011;27734;47.028;28.820;2023-12-20T11:54:56;28.83;;;14.53;;
42066;SDS011;27734;47.028;28.820;2023-12-20T11:57:28;29.23;;;14.93;;
42066;SDS011;27734;47.028;28.820;2023-12-20T12:00:05;26.50;;;13.70;;
42066;SDS011;27734;47.028;28.820;2023-12-20T12:02:45;29.05;;;14.70;;
42066;SDS011;27734;47.028;28.820;2023-12-20T12:05:26;29.92;;;14.47;;
42066;SDS011;27734;47.028;28.820;2023-12-20T12:08:03;31.03;;;14.40;;
42066;SDS011;27734;47.028;28.820;2023-12-20T12:10:38;29.77;;;15.03;;
42066;SDS011;27734;47.028;28.820;2023-12-20T12:13:12;27.80;;;14.70;;
42066;SDS011;27734;47.028;28.820;2023-12-20T12:15:43;28.50;;;14.53;;
42066;SDS011;27734;47.028;28.820;2023-12-20T12:18:16;26.80;;;14.07;;
42066;SDS011;27734;47.028;28.820;2023-12-20T12:20:48;30.10;;;14.73;;
42066;SDS011;27734;47.028;28.820;2023-12-20T12:23:23;29.40;;;14.20;;
42066;SDS011;27734;47.028;28.820;2023-12-20T12:25:55;26.97;;;14.50;;
42066;SDS011;27734;47.028;28.820;2023-12-20T12:28:54;28.77;;;14.10;;
42066;SDS011;27734;47.028;28.820;2023-12-20T12:31:25;30.45;;;16.10;;
42066;SDS011;27734;47.028;28.820;2023-12-20T12:33:57;30.40;;;14.63;;
42066;SDS011;27734;47.028;28.820;2023-12-20T12:36:30;30.17;;;15.23;;
42066;SDS011;27734;47.028;28.820;2023-12-20T12:41:34;27.80;;;15.17;;
42066;SDS011;27734;47.028;28.820;2023-12-20T12:44:11;26.83;;;15.00;;
42066;SDS011;27734;47.028;28.820;2023-12-20T12:46:43;30.67;;;16.07;;
42066;SDS011;27734;47.028;28.820;2023-12-20T12:49:18;26.40;;;14.07;;
42066;SDS011;27734;47.028;28.820;2023-12-20T12:52:07;27.27;;;14.70;;
42066;SDS011;27734;47.028;28.820;2023-12-20T12:54:50;29.83;;;15.17;;
42066;SDS011;27734;47.028;28.820;2023-12-20T12:57:33;28.10;;;15.47;;
42066;SDS011;27734;47.028;28.820;2023-12-20T13:00:09;29.77;;;15.47;;
42066;SDS011;27734;47.028;28.820;2023-12-20T13:02:47;28.70;;;15.45;;
42066;SDS011;27734;47.028;28.820;2023-12-20T13:05:19;30.20;;;15.83;;
42066;SDS011;27734;47.028;28.820;2023-12-20T13:08:02;32.33;;;15.40;;
42066;SDS011;27734;47.028;28.820;2023-12-20T13:10:37;30.40;;;17.37;;
42066;SDS011;27734;47.028;28.820;2023-12-20T13:13:09;31.37;;;16.30;;
42066;SDS011;27734;47.028;28.820;2023-12-20T13:15:40;32.80;;;16.55;;
42066;SDS011;27734;47.028;28.820;2023-12-20T13:18:21;31.37;;;17.07;;
42066;SDS011;27734;47.028;28.820;2023-12-20T13:20:52;31.57;;;18.37;;
42066;SDS011;27734;47.028;28.820;2023-12-20T13:23:24;34.90;;;17.93;;
42066;SDS011;27734;47.028;28.820;2023-12-20T13:25:56;36.00;;;18.20;;
42066;SDS011;27734;47.028;28.820;2023-12-20T13:28:28;32.17;;;18.53;;
42066;SDS011;27734;47.028;28.820;2023-12-20T13:34:24;32.30;;;18.23;;
42066;SDS011;27734;47.028;28.820;2023-12-20T13:36:57;34.43;;;18.93;;
42066;SDS011;27734;47.028;28.820;2023-12-20T13:39:28;34.97;;;19.07;;
42066;SDS011;27734;47.028;28.820;2023-12-20T13:42:01;34.57;;;18.67;;
42066;SDS011;27734;47.028;28.820;2023-12-20T13:44:32;35.03;;;18.73;;
42066;SDS011;27734;47.028;28.820;2023-12-20T13:47:04;33.00;;;17.77;;
42066;SDS011;27734;47.028;28.820;2023-12-20T13:49:37;33.48;;;18.12;;
42066;SDS011;27734;47.028;28.820;2023-12-20T13:52:11;34.60;;;19.40;;
42066;SDS011;27734;47.028;28.820;2023-12-20T13:54:51;35.33;;;19.43;;
42066;SDS011;27734;47.028;28.820;2023-12-20T13:57:23;36.87;;;19.97;;
42066;SDS011;27734;47.028;28.820;2023-12-20T13:59:57;36.17;;;18.73;;
42066;SDS011;27734;47.028;28.820;2023-12-20T14:02:35;37.17;;;19.70;;
42066;SDS011;27734;47.028;28.820;2023-12-20T14:05:07;37.40;;;20.27;;
42066;SDS011;27734;47.028;28.820;2023-12-20T14:07:47;39.70;;;21.10;;
42066;SDS011;27734;47.028;28.820;2023-12-20T14:10:22;36.83;;;19.07;;
42066;SDS011;27734;47.028;28.820;2023-12-20T14:12:54;36.20;;;19.97;;
42066;SDS011;27734;47.028;28.820;2023-12-20T14:15:29;37.17;;;20.10;;
42066;SDS011;27734;47.028;28.820;2023-12-20T14:18:05;34.93;;;19.77;;
42066;SDS011;27734;47.028;28.820;2023-12-20T14:20:42;34.73;;;19.30;;
42066;SDS011;27734;47.028;28.820;2023-12-20T14:23:18;38.33;;;20.47;;
42066;SDS011;27734;47.028;28.820;2023-12-20T14:25:50;34.85;;;19.20;;
42066;SDS011;27734;47.028;28.820;2023-12-20T14:28:24;36.17;;;19.70;;
42066;SDS011;27734;47.028;28.820;2023-12-20T14:30:56;34.23;;;19.27;;
42066;SDS011;27734;47.028;28.820;2023-12-20T14:33:28;37.37;;;19.40;;
42066;SDS011;27734;47.028;28.820;2023-12-20T14:36:05;34.60;;;19.33;;
42066;SDS011;27734;47.028;28.820;2023-12-20T14:38:41;33.67;;;19.53;;
42066;SDS011;27734;47.028;28.820;2023-12-20T14:41:13;33.87;;;19.80;;
42066;SDS011;27734;47.028;28.820;2023-12-20T14:46:28;37.27;;;19.33;;
42066;SDS011;27734;47.028;28.820;2023-12-20T14:48:59;36.90;;;20.50;;
42066;SDS011;27734;47.028;28.820;2023-12-20T14:51:34;33.97;;;19.13;;
42066;SDS011;27734;47.028;28.820;2023-12-20T14:54:06;36.60;;;19.60;;
42066;SDS011;27734;47.028;28.820;2023-12-20T14:56:38;33.93;;;18.73;;
42066;SDS011;27734;47.028;28.820;2023-12-20T14:59:10;33.50;;;18.87;;
42066;SDS011;27734;47.028;28.820;2023-12-20T15:01:46;33.85;;;18.80;;
42066;SDS011;27734;47.028;28.820;2023-12-20T15:04:17;31.73;;;18.53;;